Time;durP1;ratioP1;P1;durP2;ratioP2;P2;SDS_P1;SDS_P2;PMS_P1;PMS_P2;Temp;Humidity;BMP_temperature;BMP_pressure;BME280_temperature;BME280_humidity;BME280_pressure;Samples;Min_cycle;Max_cycle;Signal;HPM_P1;HPM_P2
2021/08/24 00:01:14;;;;;;;3.93;2.30;;;;;;;;;;10291132;28;20083;-66
2021/08/24 00:06:12;;;;;;;5.07;2.33;;;;;;;;;;10293087;28;20038;-67
2021/08/24 00:11:10;;;;;;;3.77;2.70;;;;;;;;;;10283420;28;20524;-67
2021/08/24 00:16:08;;;;;;;5.55;3.25;;;;;;;;;;10293126;28;20569;-66
2021/08/24 00:21:05;;;;;;;9.63;2.83;;;;;;;;;;10260551;28;20814;-65
2021/08/24 00:26:02;;;;;;;5.23;3.20;;;;;;;;;;10301008;28;20037;-65
2021/08/24 00:31:00;;;;;;;6.50;2.97;;;;;;;;;;10294143;28;20067;-65
2021/08/24 00:35:57;;;;;;;4.67;3.33;;;;;;;;;;10265775;28;20490;-65
2021/08/24 00:40:56;;;;;;;5.17;2.60;;;;;;;;;;10298861;28;20030;-65
2021/08/24 00:45:56;;;;;;;5.93;3.20;;;;;;;;;;10275076;28;20058;-65
2021/08/24 00:50:54;;;;;;;8.15;3.17;;;;;;;;;;10294264;28;20045;-63
2021/08/24 00:55:53;;;;;;;10.20;3.23;;;;;;;;;;10295615;28;20026;-64
2021/08/24 01:00:51;;;;;;;5.22;3.35;;;;;;;;;;10267308;28;20041;-64
2021/08/24 01:05:50;;;;;;;8.17;3.90;;;;;;;;;;10274748;28;20544;-64
2021/08/24 01:10:57;;;;;;;4.63;3.47;;;;;;;;;;10261105;28;20029;-64
2021/08/24 01:16:13;;;;;;;7.97;3.70;;;;;;;;;;10299555;28;20754;-65
2021/08/24 01:21:29;;;;;;;5.88;3.33;;;;;;;;;;10253358;28;20029;-65
2021/08/24 01:26:30;;;;;;;11.38;4.10;;;;;;;;;;10277782;28;20056;-64
2021/08/24 01:31:47;;;;;;;6.65;3.53;;;;;;;;;;10260203;28;20042;-64
2021/08/24 01:36:47;;;;;;;9.13;3.75;;;;;;;;;;10257632;28;20029;-67
2021/08/24 01:42:03;;;;;;;6.63;3.25;;;;;;;;;;10288596;28;20557;-63
2021/08/24 01:47:03;;;;;;;4.50;3.40;;;;;;;;;;10292652;28;20071;-63
2021/08/24 01:52:04;;;;;;;6.95;3.85;;;;;;;;;;10276672;28;20482;-64
2021/08/24 01:57:02;;;;;;;7.40;3.22;;;;;;;;;;10255580;28;20033;-66
2021/08/24 02:02:10;;;;;;;6.78;3.80;;;;;;;;;;10271194;28;20033;-66
2021/08/24 02:07:09;;;;;;;7.30;4.68;;;;;;;;;;10276408;28;20122;-65
2021/08/24 02:12:08;;;;;;;5.68;4.25;;;;;;;;;;10285516;28;20037;-67
2021/08/24 02:17:06;;;;;;;6.82;3.75;;;;;;;;;;10267040;28;20599;-66
2021/08/24 02:22:08;;;;;;;6.60;3.65;;;;;;;;;;10283274;28;20034;-66
2021/08/24 02:27:07;;;;;;;7.50;5.10;;;;;;;;;;10266199;28;20040;-66
2021/08/24 02:32:06;;;;;;;4.82;4.25;;;;;;;;;;10306229;28;20040;-64
2021/08/24 02:37:19;;;;;;;6.13;3.75;;;;;;;;;;10332631;28;20111;-67
2021/08/24 02:42:18;;;;;;;6.13;3.55;;;;;;;;;;10332548;28;20136;-64
2021/08/24 02:47:16;;;;;;;5.63;3.58;;;;;;;;;;10349157;28;20505;-64
2021/08/24 02:52:14;;;;;;;6.77;2.80;;;;;;;;;;10332488;28;20040;-67
2021/08/24 02:57:12;;;;;;;10.57;3.90;;;;;;;;;;10317022;28;20349;-66
2021/08/24 03:02:10;;;;;;;5.37;3.53;;;;;;;;;;10291203;28;20268;-67
2021/08/24 03:07:18;;;;;;;5.55;3.50;;;;;;;;;;10329657;28;20140;-67
2021/08/24 03:12:27;;;;;;;6.37;2.97;;;;;;;;;;10341932;28;20059;-65
2021/08/24 03:17:29;;;;;;;6.65;4.38;;;;;;;;;;10301691;28;20071;-67
2021/08/24 03:22:27;;;;;;;8.10;4.80;;;;;;;;;;10330437;28;20123;-66
2021/08/24 03:27:25;;;;;;;5.78;3.28;;;;;;;;;;10281004;28;20030;-68
2021/08/24 03:32:23;;;;;;;3.03;2.47;;;;;;;;;;10318387;28;20044;-65
2021/08/24 03:37:20;;;;;;;4.43;3.00;;;;;;;;;;10314075;28;20498;-65
2021/08/24 03:42:17;;;;;;;4.57;3.30;;;;;;;;;;10300431;28;20090;-65
2021/08/24 03:47:15;;;;;;;6.23;3.47;;;;;;;;;;10329755;28;20041;-66
2021/08/24 03:52:12;;;;;;;4.97;2.87;;;;;;;;;;10314171;28;20063;-65
2021/08/24 03:57:10;;;;;;;3.67;2.70;;;;;;;;;;10290022;28;20033;-64
2021/08/24 04:02:08;;;;;;;4.83;3.17;;;;;;;;;;10289593;28;20561;-65
2021/08/24 04:07:05;;;;;;;4.30;3.00;;;;;;;;;;10288160;28;20088;-66
2021/08/24 04:12:03;;;;;;;4.77;2.20;;;;;;;;;;10327271;28;20041;-65
2021/08/24 04:17:00;;;;;;;5.80;2.40;;;;;;;;;;10273980;28;20042;-65
2021/08/24 04:21:58;;;;;;;5.07;3.40;;;;;;;;;;10301015;28;20041;-64
2021/08/24 04:26:55;;;;;;;6.23;3.50;;;;;;;;;;10272849;28;20056;-65
2021/08/24 04:31:53;;;;;;;1.73;1.63;;;;;;;;;;10295289;28;20041;-64
2021/08/24 04:36:50;;;;;;;3.07;1.73;;;;;;;;;;10260372;28;20030;-65
2021/08/24 04:41:48;;;;;;;4.57;3.37;;;;;;;;;;10265694;28;20045;-65
2021/08/24 04:46:45;;;;;;;5.20;3.80;;;;;;;;;;10285143;28;20552;-66
2021/08/24 04:51:42;;;;;;;4.50;1.73;;;;;;;;;;10302885;28;20113;-65
2021/08/24 04:56:40;;;;;;;4.47;2.27;;;;;;;;;;10321787;28;20033;-67
2021/08/24 05:01:37;;;;;;;5.00;3.57;;;;;;;;;;10305258;28;20137;-65
2021/08/24 05:06:35;;;;;;;6.10;3.47;;;;;;;;;;10305210;28;20037;-66
2021/08/24 05:11:32;;;;;;;4.47;3.30;;;;;;;;;;10303520;28;20039;-65
2021/08/24 05:16:29;;;;;;;6.40;3.57;;;;;;;;;;10305960;28;20043;-64
2021/08/24 05:21:28;;;;;;;9.52;3.20;;;;;;;;;;10326438;28;20030;-67
2021/08/24 05:26:25;;;;;;;0.43;0.40;;;;;;;;;;10242920;28;20764;-66
2021/08/24 05:31:22;;;;;;;1.40;0.50;;;;;;;;;;10266825;28;20045;-63
2021/08/24 05:36:20;;;;;;;1.93;0.77;;;;;;;;;;10255538;28;20046;-65
2021/08/24 05:41:17;;;;;;;0.63;0.60;;;;;;;;;;10278353;28;20037;-66
2021/08/24 05:46:15;;;;;;;0.30;0.30;;;;;;;;;;10282966;28;20045;-62
2021/08/24 05:51:14;;;;;;;1.10;0.80;;;;;;;;;;10272321;28;20046;-62
2021/08/24 05:56:13;;;;;;;0.70;0.70;;;;;;;;;;10280095;28;20041;-67
2021/08/24 06:01:17;;;;;;;1.55;0.60;;;;;;;;;;10236708;28;20029;-63
2021/08/24 06:06:16;;;;;;;1.65;0.50;;;;;;;;;;10236534;28;20038;-64
2021/08/24 06:11:25;;;;;;;0.13;0.13;;;;;;;;;;10252000;28;20120;-60
2021/08/24 06:16:23;;;;;;;2.43;0.80;;;;;;;;;;10266505;28;20375;-63
2021/08/24 06:21:21;;;;;;;0.70;0.70;;;;;;;;;;10266995;28;20036;-64
2021/08/24 06:26:19;;;;;;;2.30;1.43;;;;;;;;;;10220179;28;20056;-62
2021/08/24 06:31:17;;;;;;;7.15;1.48;;;;;;;;;;10252731;28;20285;-62
2021/08/24 06:36:15;;;;;;;1.38;1.02;;;;;;;;;;10266791;28;20033;-62
2021/08/24 06:41:13;;;;;;;3.33;1.43;;;;;;;;;;10271378;28;20042;-63
2021/08/24 06:46:10;;;;;;;1.77;1.13;;;;;;;;;;10262967;28;20033;-64
2021/08/24 06:51:09;;;;;;;3.67;1.70;;;;;;;;;;10281303;28;20029;-62
2021/08/24 06:56:06;;;;;;;;;;;;;;;;;;10262307;28;20041;-67
2021/08/24 07:01:03;;;;;;;2.50;1.10;;;;;;;;;;10281113;28;19920;-62
2021/08/24 07:06:01;;;;;;;2.17;1.17;;;;;;;;;;10289667;28;20405;-62
2021/08/24 07:10:58;;;;;;;1.40;0.90;;;;;;;;;;10283624;28;20034;-61
2021/08/24 07:15:56;;;;;;;2.33;0.77;;;;;;;;;;10281053;28;20041;-62
2021/08/24 07:20:55;;;;;;;1.65;0.77;;;;;;;;;;10255210;28;20034;-62
2021/08/24 07:25:52;;;;;;;1.30;0.55;;;;;;;;;;10263831;28;20054;-62
2021/08/24 07:30:50;;;;;;;1.52;1.05;;;;;;;;;;10257945;28;20041;-62
2021/08/24 07:35:48;;;;;;;2.93;0.73;;;;;;;;;;10288515;28;20128;-68
2021/08/24 07:40:46;;;;;;;0.75;0.70;;;;;;;;;;10252830;28;20283;-61
2021/08/24 07:45:45;;;;;;;1.15;0.52;;;;;;;;;;10269599;28;20045;-62
2021/08/24 07:50:43;;;;;;;1.55;0.52;;;;;;;;;;10280137;28;20661;-62
2021/08/24 07:55:41;;;;;;;0.63;0.50;;;;;;;;;;10264118;28;20441;-62
2021/08/24 08:00:39;;;;;;;0.75;0.40;;;;;;;;;;10259358;28;20422;-60
2021/08/24 08:05:36;;;;;;;0.90;0.50;;;;;;;;;;10249104;28;20051;-63
2021/08/24 08:10:34;;;;;;;;;;;;;;;;;;10259566;28;20034;-64
2021/08/24 08:15:33;;;;;;;2.15;0.73;;;;;;;;;;10275534;28;19921;-62
2021/08/24 08:20:30;;;;;;;0.57;0.30;;;;;;;;;;10259938;28;20041;-66
2021/08/24 08:25:28;;;;;;;;;;;;;;;;;;10273867;28;20045;-62
2021/08/24 08:30:25;;;;;;;1.23;0.52;;;;;;;;;;10271787;28;19982;-63
2021/08/24 08:35:23;;;;;;;1.80;0.50;;;;;;;;;;10268505;28;20426;-62
2021/08/24 08:40:27;;;;;;;1.20;0.60;;;;;;;;;;10271077;28;20329;-65
2021/08/24 08:45:28;;;;;;;1.95;0.52;;;;;;;;;;10243332;28;20040;-65
2021/08/24 08:50:43;;;;;;;0.57;0.38;;;;;;;;;;10277590;28;20060;-66
2021/08/24 08:56:04;;;;;;;2.40;0.70;;;;;;;;;;10264109;28;20042;-65
2021/08/24 09:01:09;;;;;;;1.33;0.70;;;;;;;;;;10276008;28;20030;-65
2021/08/24 09:06:07;;;;;;;0.73;0.50;;;;;;;;;;10266528;28;20111;-64
2021/08/24 09:11:07;;;;;;;1.58;0.75;;;;;;;;;;10271013;28;20029;-64
2021/08/24 09:16:13;;;;;;;1.13;0.57;;;;;;;;;;10257653;28;20062;-64
2021/08/24 09:21:14;;;;;;;1.70;0.63;;;;;;;;;;10279912;28;20136;-65
2021/08/24 09:26:12;;;;;;;0.50;0.40;;;;;;;;;;10255870;28;20127;-63
2021/08/24 09:31:14;;;;;;;4.07;1.23;;;;;;;;;;10287088;28;20479;-64
2021/08/24 09:36:11;;;;;;;1.80;1.40;;;;;;;;;;10278228;28;20061;-64
2021/08/24 09:41:19;;;;;;;3.33;1.30;;;;;;;;;;10281827;28;20052;-64
2021/08/24 09:46:16;;;;;;;7.70;2.03;;;;;;;;;;10271072;28;20223;-65
2021/08/24 09:51:37;;;;;;;2.10;1.10;;;;;;;;;;10283426;28;20592;-65
2021/08/24 09:56:41;;;;;;;1.38;1.00;;;;;;;;;;10239527;28;20676;-65
2021/08/24 10:01:47;;;;;;;1.20;0.95;;;;;;;;;;10273932;28;20030;-64
2021/08/24 10:06:56;;;;;;;3.35;1.42;;;;;;;;;;10262386;28;20037;-66
2021/08/24 10:12:13;;;;;;;2.95;1.27;;;;;;;;;;10278751;28;20026;-64
2021/08/24 10:17:30;;;;;;;3.03;1.60;;;;;;;;;;10256617;28;20034;-65
2021/08/24 10:22:28;;;;;;;;;;;;;;;;;;10272937;28;20045;-65
2021/08/24 10:27:25;;;;;;;3.03;1.50;;;;;;;;;;10245622;28;21080;-65
2021/08/24 10:32:41;;;;;;;2.78;1.30;;;;;;;;;;10281787;28;20160;-65
2021/08/24 10:37:41;;;;;;;4.30;1.85;;;;;;;;;;10281923;28;20107;-64
2021/08/24 10:42:57;;;;;;;7.97;3.10;;;;;;;;;;10259315;28;20495;-66
2021/08/24 10:47:56;;;;;;;5.13;1.73;;;;;;;;;;10292486;28;20029;-63
2021/08/24 10:52:54;;;;;;;3.90;2.30;;;;;;;;;;10263918;28;20064;-64
2021/08/24 10:58:06;;;;;;;6.07;1.90;;;;;;;;;;10281772;28;20058;-66
2021/08/24 11:03:22;;;;;;;2.60;1.60;;;;;;;;;;10284299;28;20030;-65
2021/08/24 11:08:35;;;;;;;1.63;1.13;;;;;;;;;;10253687;28;20073;-64
2021/08/24 11:13:55;;;;;;;3.88;1.58;;;;;;;;;;10258298;28;20511;-66
2021/08/24 11:19:04;;;;;;;3.72;1.60;;;;;;;;;;10275649;28;20034;-65
2021/08/24 11:24:08;;;;;;;2.85;1.00;;;;;;;;;;10282370;28;20052;-66
2021/08/24 11:29:26;;;;;;;2.92;1.50;;;;;;;;;;10285985;28;20037;-65
2021/08/24 11:34:23;;;;;;;;;;;;;;;;;;10272649;28;20041;-68
2021/08/24 11:39:23;;;;;;;1.73;0.90;;;;;;;;;;10274188;28;20312;-65
2021/08/24 11:44:23;;;;;;;1.88;0.63;;;;;;;;;;10268888;28;20129;-64
2021/08/24 11:49:23;;;;;;;2.03;0.93;;;;;;;;;;10290952;28;20096;-65
2021/08/24 11:54:46;;;;;;;1.10;0.73;;;;;;;;;;10274794;28;20045;-63
2021/08/24 11:59:48;;;;;;;3.78;2.30;;;;;;;;;;10277377;28;20041;-64
2021/08/24 12:04:48;;;;;;;2.80;1.70;;;;;;;;;;10257406;28;20033;-65
2021/08/24 12:09:49;;;;;;;3.53;1.48;;;;;;;;;;10257028;28;20038;-66
2021/08/24 12:15:07;;;;;;;3.00;1.50;;;;;;;;;;10248735;28;20034;-67
2021/08/24 12:20:09;;;;;;;1.77;1.17;;;;;;;;;;10262151;28;20120;-64
2021/08/24 12:25:09;;;;;;;2.97;1.73;;;;;;;;;;10275610;28;20510;-65
2021/08/24 12:30:07;;;;;;;3.65;1.60;;;;;;;;;;10282589;28;20060;-64
2021/08/24 12:35:07;;;;;;;4.40;2.00;;;;;;;;;;10276979;28;20058;-66
2021/08/24 12:40:10;;;;;;;2.38;1.42;;;;;;;;;;10258834;28;20584;-65
2021/08/24 12:45:13;;;;;;;3.00;1.38;;;;;;;;;;10284957;28;20087;-65
2021/08/24 12:50:11;;;;;;;1.83;1.30;;;;;;;;;;10260936;28;20044;-64
2021/08/24 12:55:15;;;;;;;3.83;1.60;;;;;;;;;;10266488;28;20028;-64
2021/08/24 13:00:19;;;;;;;3.15;1.70;;;;;;;;;;10260502;28;20415;-65
2021/08/24 13:05:17;;;;;;;3.35;2.05;;;;;;;;;;10273110;28;20442;-65
2021/08/24 13:10:31;;;;;;;1.47;1.20;;;;;;;;;;10251114;28;20041;-66
2021/08/24 13:15:42;;;;;;;1.52;1.17;;;;;;;;;;10278304;28;20045;-64
2021/08/24 13:20:42;;;;;;;2.42;1.38;;;;;;;;;;10272658;28;20478;-68
2021/08/24 13:25:47;;;;;;;1.70;0.63;;;;;;;;;;10246994;28;20699;-64
2021/08/24 13:30:45;;;;;;;1.05;0.40;;;;;;;;;;10279278;28;20092;-65
2021/08/24 13:35:51;;;;;;;1.58;0.98;;;;;;;;;;10278200;28;20041;-64
2021/08/24 13:40:50;;;;;;;1.83;1.40;;;;;;;;;;10271347;28;20033;-63
2021/08/24 13:45:48;;;;;;;2.83;1.02;;;;;;;;;;10261965;28;20045;-64
2021/08/24 13:50:55;;;;;;;2.45;1.25;;;;;;;;;;10288005;28;20514;-67
2021/08/24 13:56:00;;;;;;;1.00;0.90;;;;;;;;;;10270611;28;20033;-67
2021/08/24 14:01:06;;;;;;;2.50;1.55;;;;;;;;;;10244093;28;20026;-65
2021/08/24 14:06:04;;;;;;;4.97;1.87;;;;;;;;;;10268370;28;20477;-65
2021/08/24 14:11:02;;;;;;;4.10;1.80;;;;;;;;;;10294278;28;20064;-64
2021/08/24 14:16:00;;;;;;;2.50;1.13;;;;;;;;;;10284050;28;20045;-64
2021/08/24 14:20:59;;;;;;;1.87;1.17;;;;;;;;;;10291841;28;20444;-64
2021/08/24 14:25:59;;;;;;;3.50;1.52;;;;;;;;;;10269999;28;20073;-65
2021/08/24 14:30:57;;;;;;;1.52;0.90;;;;;;;;;;10272013;28;20033;-65
2021/08/24 14:35:59;;;;;;;2.55;1.50;;;;;;;;;;10256212;28;20467;-64
2021/08/24 14:41:10;;;;;;;1.90;1.25;;;;;;;;;;10296781;28;20482;-66
2021/08/24 14:46:08;;;;;;;3.58;1.02;;;;;;;;;;10248009;28;20387;-64
2021/08/24 14:51:06;;;;;;;1.83;0.98;;;;;;;;;;10281645;28;20053;-65
2021/08/24 14:56:03;;;;;;;6.40;1.10;;;;;;;;;;10278826;28;20056;-64
2021/08/24 15:01:08;;;;;;;2.63;0.97;;;;;;;;;;10290441;28;20328;-64
2021/08/24 15:06:05;;;;;;;2.92;0.63;;;;;;;;;;10299958;28;20040;-63
2021/08/24 15:11:13;;;;;;;3.57;0.63;;;;;;;;;;10285838;28;20384;-64
2021/08/24 15:16:13;;;;;;;6.88;1.23;;;;;;;;;;10254276;28;20083;-63
2021/08/24 15:21:10;;;;;;;1.48;0.88;;;;;;;;;;10258861;28;20133;-65
2021/08/24 15:26:11;;;;;;;2.55;0.93;;;;;;;;;;10262221;28;20128;-65
2021/08/24 15:31:21;;;;;;;1.10;0.90;;;;;;;;;;10275997;28;20109;-63
2021/08/24 15:36:22;;;;;;;1.15;0.82;;;;;;;;;;10289951;28;20395;-65
2021/08/24 15:41:21;;;;;;;2.30;1.30;;;;;;;;;;10271815;28;20452;-64
2021/08/24 15:46:20;;;;;;;2.72;1.30;;;;;;;;;;10251034;28;20041;-66
2021/08/24 15:51:18;;;;;;;2.58;1.23;;;;;;;;;;10282243;28;20076;-64
2021/08/24 15:56:16;;;;;;;2.53;0.65;;;;;;;;;;10262545;28;20061;-66
2021/08/24 16:01:14;;;;;;;1.67;0.87;;;;;;;;;;10260395;28;20033;-64
2021/08/24 16:06:12;;;;;;;3.95;1.00;;;;;;;;;;10264980;28;20379;-64
2021/08/24 16:11:15;;;;;;;1.70;0.98;;;;;;;;;;10256711;28;20117;-65
2021/08/24 16:16:13;;;;;;;1.65;0.73;;;;;;;;;;10260590;28;20133;-67
2021/08/24 16:21:11;;;;;;;1.80;0.90;;;;;;;;;;10245932;28;20125;-65
2021/08/24 16:26:09;;;;;;;1.60;0.50;;;;;;;;;;10268132;28;20053;-65
2021/08/24 16:31:06;;;;;;;1.00;0.43;;;;;;;;;;10286557;28;20648;-63
2021/08/24 16:36:04;;;;;;;1.00;0.52;;;;;;;;;;10276240;28;20299;-63
2021/08/24 16:41:02;;;;;;;2.25;0.73;;;;;;;;;;10247478;28;20133;-65
2021/08/24 16:46:00;;;;;;;2.75;1.60;;;;;;;;;;10281324;28;20072;-66
2021/08/24 16:50:58;;;;;;;1.40;1.00;;;;;;;;;;10284354;28;20781;-64
2021/08/24 16:55:55;;;;;;;1.92;0.95;;;;;;;;;;10256440;28;20048;-66
2021/08/24 17:00:53;;;;;;;0.50;0.50;;;;;;;;;;10262308;28;20047;-64
2021/08/24 17:05:50;;;;;;;0.32;0.32;;;;;;;;;;10281430;28;20693;-66
2021/08/24 17:10:47;;;;;;;1.47;0.50;;;;;;;;;;10281212;28;20041;-65
2021/08/24 17:15:47;;;;;;;0.90;0.30;;;;;;;;;;10277132;28;20060;-65
2021/08/24 17:20:46;;;;;;;0.50;0.50;;;;;;;;;;10281939;28;20034;-66
2021/08/24 17:25:48;;;;;;;0.52;0.45;;;;;;;;;;10274161;28;20052;-64
2021/08/24 17:30:46;;;;;;;2.17;0.88;;;;;;;;;;10275647;28;20038;-64
2021/08/24 17:35:43;;;;;;;0.77;0.70;;;;;;;;;;10266132;28;20042;-64
2021/08/24 17:40:41;;;;;;;0.40;0.25;;;;;;;;;;10283321;28;20044;-64
2021/08/24 17:45:46;;;;;;;0.77;0.20;;;;;;;;;;10266486;28;20045;-64
2021/08/24 17:50:45;;;;;;;0.35;0.32;;;;;;;;;;10274312;28;20033;-65
2021/08/24 17:55:45;;;;;;;0.20;0.20;;;;;;;;;;10248670;28;20468;-67
2021/08/24 18:00:42;;;;;;;0.60;0.40;;;;;;;;;;10277457;28;20040;-66
2021/08/24 18:05:47;;;;;;;1.87;0.40;;;;;;;;;;10275339;28;20041;-64
2021/08/24 18:10:46;;;;;;;1.58;0.70;;;;;;;;;;10267449;28;20037;-64
2021/08/24 18:15:45;;;;;;;1.20;0.55;;;;;;;;;;10274052;28;20061;-64
2021/08/24 18:20:43;;;;;;;1.08;0.70;;;;;;;;;;10255326;28;20029;-63
2021/08/24 18:25:42;;;;;;;2.50;0.50;;;;;;;;;;10280941;28;20083;-64
2021/08/24 18:30:40;;;;;;;1.88;0.93;;;;;;;;;;10233823;28;20048;-65
2021/08/24 18:35:38;;;;;;;0.57;0.30;;;;;;;;;;10264977;28;20029;-64
2021/08/24 18:40:35;;;;;;;0.68;0.40;;;;;;;;;;10279752;28;20414;-66
2021/08/24 18:45:34;;;;;;;0.28;0.28;;;;;;;;;;10273985;28;20442;-68
2021/08/24 18:50:33;;;;;;;1.70;0.82;;;;;;;;;;10253188;28;20426;-65
2021/08/24 18:55:33;;;;;;;0.90;0.55;;;;;;;;;;10254702;28;20076;-65
2021/08/24 19:00:31;;;;;;;1.50;0.90;;;;;;;;;;10284123;28;20048;-64
2021/08/24 19:05:29;;;;;;;2.70;0.65;;;;;;;;;;10254281;28;20079;-65
2021/08/24 19:10:26;;;;;;;;;;;;;;;;;;10275170;28;20037;-63
2021/08/24 19:15:32;;;;;;;0.90;0.50;;;;;;;;;;10288962;28;20343;-66
2021/08/24 19:20:29;;;;;;;4.90;1.92;;;;;;;;;;10268662;28;20041;-65
2021/08/24 19:25:27;;;;;;;;;;;;;;;;;;10284344;28;20088;-65
2021/08/24 19:30:24;;;;;;;15.77;8.43;;;;;;;;;;10264327;28;19913;-63
2021/08/24 19:35:22;;;;;;;2.47;2.27;;;;;;;;;;10269112;28;20319;-64
2021/08/24 19:40:19;;;;;;;;;;;;;;;;;;10282385;28;20872;-66
2021/08/24 19:45:19;;;;;;;3.08;1.77;;;;;;;;;;10277273;28;19999;-65
2021/08/24 19:50:17;;;;;;;4.57;2.72;;;;;;;;;;10282714;28;20041;-66
2021/08/24 19:55:16;;;;;;;4.75;2.67;;;;;;;;;;10258052;28;20041;-68
2021/08/24 20:00:14;;;;;;;4.03;2.15;;;;;;;;;;10256157;28;20391;-65
2021/08/24 20:05:12;;;;;;;5.40;3.13;;;;;;;;;;10262228;28;20022;-66
2021/08/24 20:10:10;;;;;;;9.52;3.50;;;;;;;;;;10277302;28;20293;-65
2021/08/24 20:15:08;;;;;;;6.83;3.30;;;;;;;;;;10271858;28;20432;-69
2021/08/24 20:20:06;;;;;;;3.78;2.42;;;;;;;;;;10274075;28;20038;-67
2021/08/24 20:25:04;;;;;;;5.00;2.33;;;;;;;;;;10266388;28;20036;-64
2021/08/24 20:30:01;;;;;;;3.05;1.65;;;;;;;;;;10265228;28;20048;-65
2021/08/24 20:34:59;;;;;;;4.70;1.83;;;;;;;;;;10253389;28;20387;-66
2021/08/24 20:39:56;;;;;;;6.22;2.70;;;;;;;;;;10283215;28;20037;-65
2021/08/24 20:44:53;;;;;;;3.00;2.00;;;;;;;;;;10253547;28;20033;-66
2021/08/24 20:49:51;;;;;;;4.00;1.33;;;;;;;;;;10285182;28;20044;-65
2021/08/24 20:54:48;;;;;;;6.13;1.77;;;;;;;;;;10275550;28;20037;-65
2021/08/24 20:59:46;;;;;;;5.33;1.73;;;;;;;;;;10278208;28;20610;-64
2021/08/24 21:04:43;;;;;;;1.33;1.23;;;;;;;;;;10282486;28;20647;-64
2021/08/24 21:09:40;;;;;;;3.50;2.27;;;;;;;;;;10259073;28;20038;-65
2021/08/24 21:14:38;;;;;;;7.77;3.43;;;;;;;;;;10284889;28;20033;-64
2021/08/24 21:19:36;;;;;;;8.35;3.38;;;;;;;;;;10259745;28;20048;-65
2021/08/24 21:24:34;;;;;;;3.60;2.95;;;;;;;;;;10254993;28;20065;-65
2021/08/24 21:29:31;;;;;;;9.43;3.30;;;;;;;;;;10287850;28;20143;-65
2021/08/24 21:34:28;;;;;;;3.83;2.93;;;;;;;;;;10277931;28;20037;-64
2021/08/24 21:39:26;;;;;;;5.50;3.07;;;;;;;;;;10273049;28;20042;-65
2021/08/24 21:44:23;;;;;;;4.30;3.23;;;;;;;;;;10247494;28;20046;-65
2021/08/24 21:49:21;;;;;;;4.50;3.30;;;;;;;;;;10286389;28;20037;-64
2021/08/24 21:54:19;;;;;;;;;;;;;;;;;;10277063;28;20033;-65
2021/08/24 21:59:17;;;;;;;4.88;3.20;;;;;;;;;;10284044;28;19916;-67
2021/08/24 22:04:15;;;;;;;6.57;3.67;;;;;;;;;;10267329;28;20382;-65
2021/08/24 22:09:14;;;;;;;6.33;3.53;;;;;;;;;;10278511;28;20049;-68
2021/08/24 22:14:16;;;;;;;8.23;1.70;;;;;;;;;;10280924;28;20615;-66
2021/08/24 22:19:15;;;;;;;2.17;0.82;;;;;;;;;;10250799;28;20560;-64
2021/08/24 22:24:15;;;;;;;0.43;0.43;;;;;;;;;;10259312;28;20054;-67
2021/08/24 22:29:12;;;;;;;2.40;1.05;;;;;;;;;;10288444;28;20477;-64
2021/08/24 22:34:13;;;;;;;2.27;1.50;;;;;;;;;;10277692;28;20731;-65
2021/08/24 22:39:10;;;;;;;2.05;1.17;;;;;;;;;;10271188;28;20088;-64
2021/08/24 22:44:10;;;;;;;1.70;1.00;;;;;;;;;;10278293;28;20084;-62
2021/08/24 22:49:07;;;;;;;1.45;0.95;;;;;;;;;;10256634;28;20044;-68
2021/08/24 22:54:05;;;;;;;3.97;1.97;;;;;;;;;;10283600;28;20026;-65
2021/08/24 22:59:03;;;;;;;2.10;0.93;;;;;;;;;;10278147;28;20068;-67
2021/08/24 23:04:00;;;;;;;1.83;1.10;;;;;;;;;;10287901;28;20040;-65
2021/08/24 23:08:57;;;;;;;5.77;2.23;;;;;;;;;;10265785;28;20053;-65
2021/08/24 23:13:55;;;;;;;2.10;1.23;;;;;;;;;;10276835;28;20097;-64
2021/08/24 23:18:52;;;;;;;0.57;0.53;;;;;;;;;;10274177;28;20045;-66
2021/08/24 23:23:50;;;;;;;1.73;0.87;;;;;;;;;;10259898;28;20510;-67
2021/08/24 23:28:47;;;;;;;0.53;0.40;;;;;;;;;;10279113;28;20184;-65
2021/08/24 23:33:44;;;;;;;0.73;0.60;;;;;;;;;;10265343;28;20042;-66
2021/08/24 23:38:42;;;;;;;2.73;1.17;;;;;;;;;;10293313;28;20433;-66
2021/08/24 23:43:39;;;;;;;0.23;0.23;;;;;;;;;;10292384;28;20179;-67
2021/08/24 23:48:37;;;;;;;2.03;0.90;;;;;;;;;;10278182;28;20543;-68
2021/08/24 23:53:34;;;;;;;1.20;0.30;;;;;;;;;;10282168;28;20052;-67
2021/08/24 23:58:32;;;;;;;2.10;0.73;;;;;;;;;;10280681;28;20042;-67
